createdAt,value
2019-01-21T00:02:13.146Z,85.13
2019-01-21T00:04:42.121Z,84.81
2019-01-21T00:07:30.056Z,85.12
2019-01-21T00:10:18.579Z,84.79
2019-01-21T00:24:45.269Z,84.58
2019-01-21T00:27:14.011Z,83.44
2019-01-21T00:29:42.669Z,83.19
2019-01-21T00:32:11.294Z,83.31
2019-01-21T00:34:39.920Z,83.97
2019-01-21T00:37:08.596Z,84.11
2019-01-21T00:39:37.390Z,84.23
2019-01-21T00:42:26.759Z,84.48
2019-01-21T00:44:55.402Z,84.73
2019-01-21T00:47:29.821Z,84.97
2019-01-21T00:49:54.546Z,84.42
2019-01-21T00:52:23.225Z,84.46
2019-01-21T00:54:51.845Z,84.66
2019-01-21T00:57:20.556Z,84.72
2019-01-21T00:59:49.236Z,84.74
2019-01-21T01:02:17.915Z,85.30
2019-01-21T01:04:46.601Z,85.62
2019-01-21T01:07:15.337Z,85.59
2019-01-21T01:09:44.022Z,85.19
2019-01-21T01:12:12.710Z,85.25
2019-01-21T01:14:41.513Z,85.01
2019-01-21T01:17:10.121Z,84.65
2019-01-21T01:19:38.767Z,84.95
2019-01-21T01:22:07.522Z,84.75
2019-01-21T01:24:36.166Z,84.70
2019-01-21T01:27:04.862Z,85.25
2019-01-21T01:29:33.515Z,85.51
2019-01-21T01:32:02.221Z,85.29
2019-01-21T01:34:30.947Z,85.29
2019-01-21T01:36:59.629Z,85.58
2019-01-21T01:39:28.351Z,85.41
2019-01-21T01:41:56.974Z,85.66
2019-01-21T01:44:25.926Z,85.50
2019-01-21T01:46:54.565Z,85.60
2019-01-21T01:49:23.296Z,85.38
2019-01-21T01:51:52.029Z,85.72
2019-01-21T01:54:20.703Z,85.71
2019-01-21T01:56:49.448Z,85.97
2019-01-21T01:59:18.182Z,85.86
2019-01-21T02:01:46.821Z,85.84
2019-01-21T02:04:15.445Z,86.16
2019-01-21T02:06:44.134Z,86.06
2019-01-21T02:09:12.838Z,86.08
2019-01-21T02:11:41.783Z,85.84
2019-01-21T02:14:10.467Z,86.11
2019-01-21T02:16:39.123Z,85.96
2019-01-21T02:19:07.902Z,86.12
2019-01-21T02:21:37.664Z,86.51
2019-01-21T02:24:08.658Z,86.23
2019-01-21T02:27:15.787Z,85.87
2019-01-21T02:30:23.293Z,85.97
2019-01-21T02:33:20.321Z,85.53
2019-01-21T02:36:27.448Z,85.46
2019-01-21T02:39:21.218Z,85.61
2019-01-21T02:42:05.578Z,85.58
2019-01-21T02:45:12.687Z,85.47
2019-01-21T02:48:03.142Z,85.49
2019-01-21T02:51:10.253Z,85.59
2019-01-21T02:54:03.664Z,86.25
2019-01-21T02:57:10.834Z,86.52
2019-01-21T03:00:17.918Z,86.74
2019-01-21T03:03:25.041Z,86.45
2019-01-21T03:06:32.176Z,86.21
2019-01-21T03:09:39.317Z,86.32
2019-01-21T03:12:46.438Z,86.26
2019-01-21T03:15:53.533Z,86.30
2019-01-21T03:18:46.392Z,86.32
2019-01-21T03:21:53.545Z,86.74
2019-01-21T03:25:00.678Z,86.87
2019-01-21T03:28:08.075Z,86.97
2019-01-21T03:34:34.391Z,87.14
2019-01-21T03:37:41.516Z,86.83
2019-01-21T03:40:48.604Z,87.01
2019-01-21T03:43:55.740Z,87.03
2019-01-21T03:46:48.872Z,87.23
2019-01-21T03:49:24.471Z,87.15
2019-01-21T03:52:19.153Z,87.37
2019-01-21T03:55:09.340Z,87.25
2019-01-21T03:58:16.436Z,87.07
2019-01-21T04:01:07.792Z,87.03
2019-01-21T04:04:02.113Z,87.16
2019-01-21T04:07:09.292Z,87.16
2019-01-21T04:10:16.418Z,86.90
2019-01-21T04:13:08.549Z,87.21
2019-01-21T04:16:04.682Z,87.36
2019-01-21T04:18:57.292Z,87.11
2019-01-21T04:22:04.419Z,87.25
2019-01-21T04:25:11.549Z,87.47
2019-01-21T04:28:18.668Z,87.29
2019-01-21T04:31:26.329Z,87.28
2019-01-21T04:34:11.445Z,87.46
2019-01-21T04:37:20.244Z,87.15
2019-01-21T04:40:27.366Z,87.57
2019-01-21T04:43:23.470Z,87.80
2019-01-21T04:46:15.495Z,87.88
2019-01-21T04:49:22.661Z,88.10
2019-01-21T04:52:29.807Z,87.97
2019-01-21T04:55:36.963Z,88.06
2019-01-21T04:58:44.075Z,88.14
2019-01-21T05:01:51.303Z,88.15
2019-01-21T05:04:58.424Z,87.99
2019-01-21T05:07:52.418Z,88.05
2019-01-21T05:10:45.991Z,88.06
2019-01-21T05:17:11.365Z,88.05
2019-01-21T05:20:18.541Z,88.02
2019-01-21T05:23:25.656Z,88.04
2019-01-21T05:26:32.748Z,88.15
2019-01-21T05:29:39.888Z,88.11
2019-01-21T05:32:47.019Z,88.18
2019-01-21T05:35:54.148Z,88.14
2019-01-21T05:39:01.259Z,88.86
2019-01-21T05:42:08.386Z,88.37
2019-01-21T05:45:15.533Z,88.39
2019-01-21T05:50:30.980Z,88.66
2019-01-21T05:53:38.097Z,88.36
2019-01-21T05:56:45.292Z,88.39
2019-01-21T06:02:47.026Z,88.26
2019-01-21T06:05:49.051Z,88.11
2019-01-21T06:08:56.184Z,88.15
2019-01-21T06:11:50.806Z,88.16
2019-01-21T06:14:57.922Z,87.78
2019-01-21T06:18:05.055Z,87.81
2019-01-21T06:21:12.176Z,87.98
2019-01-21T06:23:48.226Z,88.39
2019-01-21T06:26:55.320Z,88.19
2019-01-21T06:30:02.465Z,88.46
2019-01-21T06:33:09.617Z,88.53
2019-01-21T06:36:16.741Z,88.62
2019-01-21T06:39:23.838Z,88.51
2019-01-21T06:42:30.947Z,88.00
2019-01-21T06:45:38.082Z,87.86
2019-01-21T06:48:32.581Z,88.10
2019-01-21T06:51:39.686Z,88.32
2019-01-21T06:54:32.045Z,88.06
2019-01-21T06:57:26.561Z,88.45
2019-01-21T07:00:33.706Z,88.14
2019-01-21T07:06:45.643Z,88.27
2019-01-21T07:09:37.148Z,88.27
2019-01-21T07:12:22.121Z,88.22
2019-01-21T07:15:29.231Z,88.07
2019-01-21T07:18:36.348Z,88.04
2019-01-21T07:21:43.461Z,87.96
2019-01-21T07:24:50.568Z,88.22
2019-01-21T07:27:57.684Z,88.52
2019-01-21T07:31:04.843Z,88.82
2019-01-21T07:34:12.026Z,89.12
2019-01-21T07:36:51.059Z,89.05
2019-01-21T07:39:58.185Z,88.88
2019-01-21T07:43:05.322Z,88.93
2019-01-21T07:46:12.475Z,88.63
2019-01-21T07:49:19.599Z,87.96
2019-01-21T07:52:33.502Z,88.08
2019-01-21T07:55:09.105Z,87.68
2019-01-21T07:58:04.956Z,87.96
2019-01-21T08:01:12.113Z,88.54
2019-01-21T08:04:19.569Z,88.69
2019-01-21T08:06:58.643Z,88.34
2019-01-21T08:10:05.356Z,88.41
2019-01-21T08:13:12.478Z,88.27
2019-01-21T08:16:19.611Z,87.88
2019-01-21T08:19:26.741Z,87.77
2019-01-21T08:22:33.865Z,87.72
2019-01-21T08:25:29.215Z,87.63
2019-01-21T08:28:36.358Z,88.03
2019-01-21T08:31:36.838Z,87.97
2019-01-21T08:34:43.982Z,88.14
2019-01-21T08:37:36.303Z,88.17
2019-01-21T08:40:31.170Z,88.06
2019-01-21T08:43:38.293Z,88.08
2019-01-21T08:46:45.439Z,87.72
2019-01-21T08:49:52.555Z,87.13
2019-01-21T08:52:44.637Z,87.50
2019-01-21T08:55:51.767Z,87.15
2019-01-21T08:58:44.372Z,87.04
2019-01-21T09:01:51.493Z,87.06
2019-01-21T09:04:58.629Z,87.13
2019-01-21T09:07:53.481Z,87.17
2019-01-21T09:10:46.326Z,86.96
2019-01-21T09:13:53.447Z,86.96
2019-01-21T09:17:00.579Z,86.64
2019-01-21T09:20:10.814Z,86.55
2019-01-21T09:23:16.575Z,86.10
2019-01-21T09:26:23.696Z,86.23
2019-01-21T09:29:15.332Z,86.30
2019-01-21T09:32:22.427Z,85.63
2019-01-21T09:35:18.144Z,85.55
2019-01-21T09:38:25.261Z,85.03
2019-01-21T09:41:32.379Z,84.69
2019-01-21T09:44:23.179Z,84.66
2019-01-21T09:46:51.308Z,84.51
2019-01-21T09:49:18.689Z,84.52
2019-01-21T09:52:28.470Z,84.64
2019-01-21T09:54:57.182Z,83.84
2019-01-21T10:00:40.720Z,83.43
2019-01-21T10:03:30.156Z,83.75
2019-01-21T10:06:21.458Z,83.27
2019-01-21T10:09:16.892Z,83.63
2019-01-21T10:12:23.990Z,83.36
2019-01-21T10:15:31.110Z,82.93
2019-01-21T10:18:23.927Z,83.13
2019-01-21T10:21:31.086Z,82.07
2019-01-21T10:24:22.941Z,82.25
2019-01-21T10:27:30.053Z,81.96
2019-01-21T10:30:30.019Z,82.25
2019-01-21T10:33:37.142Z,81.87
2019-01-21T10:36:44.295Z,81.87
2019-01-21T10:39:51.427Z,80.47
2019-01-21T10:42:58.570Z,80.47
2019-01-21T10:45:54.051Z,80.40
2019-01-21T10:48:45.602Z,80.68
2019-01-21T10:51:52.740Z,79.70
2019-01-21T10:54:59.855Z,79.92
2019-01-21T10:58:07.002Z,79.72
2019-01-21T11:01:00.429Z,79.54
2019-01-21T11:04:07.556Z,79.31
2019-01-21T11:07:02.778Z,78.88
2019-01-21T11:09:53.598Z,78.68
2019-01-21T11:12:45.154Z,78.62
2019-01-21T11:15:35.572Z,78.64
2019-01-21T11:18:42.677Z,78.27
2019-01-21T11:21:49.797Z,77.92
2019-01-21T11:24:56.894Z,77.74
2019-01-21T11:28:04.005Z,77.51
2019-01-21T11:31:11.147Z,77.28
2019-01-21T11:34:18.262Z,76.75
2019-01-21T11:37:13.286Z,76.65
2019-01-21T11:40:20.393Z,76.55
2019-01-21T11:43:27.533Z,76.25
2019-01-21T11:46:34.651Z,75.80
2019-01-21T11:49:25.943Z,76.06
2019-01-21T11:52:04.851Z,75.68
2019-01-21T11:55:11.958Z,75.44
2019-01-21T11:58:19.096Z,76.08
2019-01-21T12:01:26.223Z,74.74
2019-01-21T12:04:16.599Z,74.83
2019-01-21T12:07:11.433Z,74.50
2019-01-21T12:10:18.578Z,74.46
2019-01-21T12:13:21.497Z,74.43
2019-01-21T12:16:28.706Z,74.11
2019-01-21T12:19:19.953Z,74.43
2019-01-21T12:22:27.062Z,73.97
2019-01-21T12:25:05.213Z,74.32
2019-01-21T12:27:57.111Z,74.10
2019-01-21T12:31:04.188Z,73.79
2019-01-21T12:34:11.314Z,73.78
2019-01-21T12:37:06.004Z,73.98
2019-01-21T12:39:57.724Z,74.38
2019-01-21T12:43:09.174Z,74.30
2019-01-21T12:45:49.255Z,73.98
2019-01-21T12:48:56.397Z,73.97
2019-01-21T12:52:03.499Z,74.01
2019-01-21T12:55:10.624Z,73.45
2019-01-21T12:58:17.756Z,73.46
2019-01-21T13:01:24.873Z,74.04
2019-01-21T13:04:31.980Z,72.88
2019-01-21T13:07:39.075Z,72.68
2019-01-21T13:10:46.191Z,72.49
2019-01-21T13:13:38.418Z,72.81
2019-01-21T13:16:45.527Z,72.79
2019-01-21T13:19:52.658Z,72.70
2019-01-21T13:22:59.786Z,73.46
2019-01-21T13:25:43.902Z,72.87
2019-01-21T13:28:34.701Z,72.32
2019-01-21T13:31:41.880Z,72.73
2019-01-21T13:34:48.996Z,72.94
2019-01-21T13:37:43.863Z,72.97
2019-01-21T13:40:50.990Z,73.12
2019-01-21T13:43:58.125Z,73.32
2019-01-21T13:46:53.415Z,72.97
2019-01-21T13:49:33.275Z,72.34
2019-01-21T13:52:40.399Z,72.08
2019-01-21T13:55:47.536Z,72.08
2019-01-21T13:58:49.764Z,71.48
2019-01-21T14:01:56.875Z,70.68
2019-01-21T14:04:52.142Z,71.33
2019-01-21T14:07:59.258Z,71.59
2019-01-21T14:11:06.384Z,71.70
2019-01-21T14:13:57.022Z,72.49
2019-01-21T14:16:59.015Z,71.85
2019-01-21T14:20:06.135Z,71.94
2019-01-21T14:23:13.262Z,70.97
2019-01-21T14:26:20.384Z,69.59
2019-01-21T14:29:27.489Z,70.73
2019-01-21T14:32:34.635Z,70.78
2019-01-21T14:35:41.729Z,70.94
2019-01-21T14:38:48.859Z,70.36
2019-01-21T14:41:55.977Z,70.17
2019-01-21T14:45:03.090Z,71.00
2019-01-21T14:48:06.118Z,70.89
2019-01-21T14:51:13.211Z,71.23
2019-01-21T14:54:20.374Z,71.02
2019-01-21T14:57:27.503Z,70.89
2019-01-21T15:00:21.869Z,71.60
2019-01-21T15:03:02.126Z,71.30
2019-01-21T15:06:09.336Z,71.79
2019-01-21T15:09:20.741Z,72.63
2019-01-21T15:12:27.820Z,71.60
2019-01-21T15:15:22.687Z,72.21
2019-01-21T15:18:17.441Z,71.58
2019-01-21T15:21:07.897Z,70.86
2019-01-21T15:24:15.240Z,70.69
2019-01-21T15:27:07.520Z,70.83
2019-01-21T15:30:00.027Z,71.70
2019-01-21T15:32:51.758Z,72.13
2019-01-21T15:35:58.882Z,72.65
2019-01-21T15:39:06.000Z,73.20
2019-01-21T15:42:10.762Z,73.50
2019-01-21T15:45:18.004Z,73.89
2019-01-21T15:48:13.545Z,74.32
2019-01-21T15:51:22.446Z,74.67
2019-01-21T15:54:29.569Z,75.25
2019-01-21T15:57:29.446Z,75.57
2019-01-21T16:00:36.616Z,75.74
2019-01-21T16:03:43.772Z,76.09
2019-01-21T16:06:50.940Z,76.43
2019-01-21T16:09:32.568Z,77.29
2019-01-21T16:12:25.269Z,77.91
2019-01-21T16:18:28.808Z,79.06
2019-01-21T16:33:20.633Z,80.25
2019-01-21T16:36:27.934Z,80.52
2019-01-21T16:39:36.387Z,81.53
2019-01-21T16:51:08.514Z,81.37
2019-01-21T16:57:28.287Z,81.57
2019-01-21T17:00:01.901Z,81.42
2019-01-21T17:05:25.820Z,83.13
2019-01-21T17:07:54.572Z,83.64
2019-01-21T17:10:23.343Z,83.51
2019-01-21T17:12:52.037Z,83.59
2019-01-21T17:15:20.715Z,83.51
2019-01-21T17:17:49.334Z,83.61
2019-01-21T17:20:19.877Z,83.37
2019-01-21T17:22:48.606Z,83.70
2019-01-21T17:25:17.450Z,83.52
2019-01-21T17:27:46.200Z,83.44
2019-01-21T17:30:15.586Z,83.42
2019-01-21T17:32:44.332Z,83.61
2019-01-21T17:35:13.676Z,85.27
2019-01-21T17:37:42.629Z,85.40
2019-01-21T17:40:13.327Z,85.10
2019-01-21T17:42:42.141Z,84.87
2019-01-21T17:45:13.774Z,84.58
2019-01-21T17:47:42.629Z,84.42
2019-01-21T17:50:12.088Z,84.55
2019-01-21T17:52:40.907Z,84.32
2019-01-21T17:55:09.825Z,84.06
2019-01-21T17:57:38.611Z,84.04
2019-01-21T18:03:02.852Z,83.84
2019-01-21T18:05:31.695Z,84.06
2019-01-21T18:08:00.456Z,84.37
2019-01-21T18:10:29.176Z,84.59
2019-01-21T18:12:57.943Z,84.76
2019-01-21T18:15:26.619Z,84.63
2019-01-21T18:17:55.256Z,84.82
2019-01-21T18:20:27.407Z,84.83
2019-01-21T18:23:17.761Z,84.28
2019-01-21T18:28:46.796Z,84.59
2019-01-21T18:31:16.084Z,84.98
2019-01-21T18:33:50.074Z,84.96
2019-01-21T18:36:24.102Z,85.28
2019-01-21T18:38:54.099Z,85.83
2019-01-21T18:41:23.208Z,86.45
2019-01-21T18:43:57.354Z,86.96
2019-01-21T18:46:26.580Z,87.59
2019-01-21T18:49:22.804Z,88.29
2019-01-21T18:55:02.059Z,88.44
2019-01-21T18:57:20.417Z,88.54
2019-01-21T19:02:52.146Z,89.42
2019-01-21T19:05:21.874Z,89.20
2019-01-21T19:14:12.667Z,89.25
2019-01-21T19:16:45.144Z,89.36
2019-01-21T19:21:53.617Z,89.51
2019-01-21T19:27:31.789Z,89.94
2019-01-21T19:35:41.868Z,89.71
2019-01-21T19:38:20.573Z,89.33
2019-01-21T19:40:50.072Z,89.13
2019-01-21T19:44:34.504Z,89.23
2019-01-21T19:45:50.860Z,89.10
2019-01-21T19:48:19.790Z,88.75
2019-01-21T19:53:44.647Z,89.52
2019-01-21T19:58:57.691Z,89.84
2019-01-21T20:01:26.975Z,89.68
2019-01-21T20:04:15.528Z,89.77
2019-01-21T20:06:45.398Z,89.74
2019-01-21T20:14:49.039Z,89.61
2019-01-21T20:20:32.482Z,89.99
2019-01-21T20:26:10.542Z,90.54
2019-01-21T20:28:40.199Z,91.21
2019-01-21T20:31:29.132Z,91.02
2019-01-21T20:33:58.848Z,91.15
2019-01-21T20:37:10.721Z,91.71
2019-01-21T20:42:30.415Z,92.58
2019-01-21T20:47:48.946Z,93.19
2019-01-21T20:50:58.793Z,92.95
2019-01-21T20:53:28.986Z,92.79
2019-01-21T21:05:06.422Z,92.60
2019-01-21T21:07:59.846Z,92.16
2019-01-21T21:10:31.714Z,92.63
2019-01-21T21:13:01.415Z,93.07
2019-01-21T21:18:45.361Z,93.88
2019-01-21T21:21:14.380Z,93.62
2019-01-21T21:23:44.767Z,93.50
2019-01-21T21:26:53.912Z,93.53
2019-01-21T21:32:38.965Z,93.51
2019-01-21T21:35:08.078Z,93.45
2019-01-21T21:37:58.292Z,93.42
2019-01-21T21:40:28.291Z,93.26
2019-01-21T21:43:00.208Z,93.52
2019-01-21T21:46:03.367Z,93.74
2019-01-21T21:57:25.102Z,94.46
2019-01-21T21:59:54.777Z,94.51
2019-01-21T22:02:27.082Z,94.24
2019-01-21T22:04:56.622Z,94.03
2019-01-21T22:10:28.960Z,94.03
2019-01-21T22:13:02.832Z,94.40
2019-01-21T22:15:32.272Z,94.74
2019-01-21T22:18:02.223Z,94.48
2019-01-21T22:20:32.417Z,94.39
2019-01-21T22:23:04.778Z,94.28
2019-01-21T22:26:02.284Z,94.11
2019-01-21T22:28:43.912Z,93.72
2019-01-21T22:31:13.254Z,93.08
2019-01-21T22:33:45.443Z,93.30
2019-01-21T22:36:20.587Z,93.44
2019-01-21T22:38:53.266Z,93.52
2019-01-21T22:41:23.912Z,93.52
2019-01-21T22:43:53.083Z,93.47
2019-01-21T22:52:01.593Z,93.73
2019-01-21T22:55:21.798Z,93.07
2019-01-21T22:57:40.665Z,93.57
2019-01-21T23:03:28.118Z,93.84
2019-01-21T23:05:57.355Z,93.95
2019-01-21T23:08:27.199Z,93.66
2019-01-21T23:10:56.168Z,93.83
2019-01-21T23:16:19.072Z,93.44
2019-01-21T23:18:50.968Z,93.44
2019-01-21T23:21:20.140Z,93.33
2019-01-21T23:24:08.456Z,93.20
2019-01-21T23:29:32.445Z,93.06
2019-01-21T23:32:01.593Z,93.47
2019-01-21T23:34:32.087Z,93.94
2019-01-21T23:37:00.998Z,94.03
2019-01-21T23:39:29.821Z,93.94
2019-01-21T23:41:58.702Z,93.83
2019-01-21T23:44:27.615Z,93.72
2019-01-21T23:46:58.998Z,93.72
2019-01-21T23:49:27.939Z,93.71
2019-01-21T23:51:57.792Z,93.19
2019-01-21T23:54:26.539Z,92.58
2019-01-21T23:56:56.138Z,92.37
2019-01-21T23:59:25.047Z,92.46
